createdAt,value
2018-11-12T00:00:17.528Z,13.02
2018-11-12T00:02:48.658Z,12.95
2018-11-12T00:05:18.063Z,12.85
2018-11-12T00:07:47.121Z,12.83
2018-11-12T00:10:16.431Z,12.89
2018-11-12T00:12:45.224Z,12.84
2018-11-12T00:15:14.322Z,12.74
2018-11-12T00:17:43.139Z,12.87
2018-11-12T00:20:13.485Z,12.75
2018-11-12T00:22:43.447Z,12.81
2018-11-12T00:25:12.236Z,12.91
2018-11-12T00:27:41.143Z,12.73
2018-11-12T00:30:18.774Z,12.60
2018-11-12T00:32:48.166Z,12.77
2018-11-12T00:35:17.453Z,12.78
2018-11-12T00:37:46.300Z,12.61
2018-11-12T00:40:16.408Z,12.61
2018-11-12T00:42:45.911Z,12.59
2018-11-12T00:45:15.049Z,12.47
2018-11-12T00:47:44.320Z,12.50
2018-11-12T00:50:14.416Z,12.63
2018-11-12T00:52:43.515Z,12.55
2018-11-12T00:55:13.882Z,12.67
2018-11-12T00:57:42.942Z,12.47
2018-11-12T01:00:20.371Z,12.48
2018-11-12T01:02:50.252Z,12.54
2018-11-12T01:05:19.680Z,12.60
2018-11-12T01:07:48.911Z,12.53
2018-11-12T01:10:18.861Z,12.53
2018-11-12T01:12:48.626Z,12.53
2018-11-12T01:15:18.815Z,12.60
2018-11-12T01:17:47.612Z,12.59
2018-11-12T01:20:17.076Z,12.62
2018-11-12T01:22:45.861Z,12.62
2018-11-12T01:25:15.456Z,12.61
2018-11-12T01:27:44.634Z,12.49
2018-11-12T01:30:14.522Z,12.39
2018-11-12T01:32:43.899Z,12.53
2018-11-12T01:35:13.607Z,12.58
2018-11-12T01:37:42.627Z,12.54
2018-11-12T01:40:12.262Z,12.63
2018-11-12T01:42:41.638Z,12.64
2018-11-12T01:45:12.627Z,12.68
2018-11-12T01:47:41.699Z,12.57
2018-11-12T01:50:11.883Z,12.61
2018-11-12T01:52:41.969Z,12.55
2018-11-12T01:55:11.905Z,12.56
2018-11-12T01:57:40.675Z,12.49
2018-11-12T02:00:13.574Z,12.57
2018-11-12T02:02:43.079Z,12.62
2018-11-12T02:05:11.892Z,12.61
2018-11-12T02:07:40.968Z,12.66
2018-11-12T02:10:11.991Z,12.72
2018-11-12T02:12:41.186Z,12.68
2018-11-12T02:15:12.403Z,12.62
2018-11-12T02:17:41.352Z,12.72
2018-11-12T02:20:11.719Z,12.66
2018-11-12T02:22:40.838Z,12.69
2018-11-12T02:25:10.572Z,12.72
2018-11-12T02:27:39.823Z,12.70
2018-11-12T02:30:12.518Z,12.71
2018-11-12T02:32:41.325Z,12.54
2018-11-12T02:35:10.700Z,12.56
2018-11-12T02:37:40.247Z,12.53
2018-11-12T02:40:10.600Z,12.46
2018-11-12T02:42:39.430Z,12.46
2018-11-12T02:45:11.425Z,12.50
2018-11-12T02:47:41.046Z,12.46
2018-11-12T02:50:12.081Z,12.55
2018-11-12T02:52:41.423Z,12.48
2018-11-12T02:55:12.807Z,12.46
2018-11-12T02:57:42.567Z,12.52
2018-11-12T03:00:15.600Z,12.48
2018-11-12T03:02:44.771Z,12.53
2018-11-12T03:05:14.319Z,12.52
2018-11-12T03:07:43.414Z,12.45
2018-11-12T03:10:14.789Z,12.44
2018-11-12T03:12:43.658Z,12.58
2018-11-12T03:15:13.237Z,12.52
2018-11-12T03:17:42.927Z,12.68
2018-11-12T03:20:14.292Z,12.72
2018-11-12T03:22:43.208Z,12.55
2018-11-12T03:25:14.401Z,12.55
2018-11-12T03:27:43.971Z,12.58
2018-11-12T03:30:14.362Z,12.48
2018-11-12T03:32:44.083Z,12.41
2018-11-12T03:35:13.543Z,12.47
2018-11-12T03:37:43.598Z,12.44
2018-11-12T03:40:14.556Z,12.31
2018-11-12T03:42:44.341Z,12.45
2018-11-12T03:45:16.566Z,12.45
2018-11-12T03:47:45.615Z,12.46
2018-11-12T03:50:16.516Z,12.42
2018-11-12T03:52:45.675Z,12.49
2018-11-12T03:55:17.082Z,12.48
2018-11-12T03:57:46.135Z,12.53
2018-11-12T04:00:17.466Z,12.44
2018-11-12T04:02:46.718Z,12.52
2018-11-12T04:05:15.727Z,12.57
2018-11-12T04:07:44.584Z,12.51
2018-11-12T04:10:17.509Z,12.55
2018-11-12T04:12:46.328Z,12.62
2018-11-12T04:15:19.663Z,12.60
2018-11-12T04:17:48.615Z,12.75
2018-11-12T04:20:18.681Z,12.68
2018-11-12T04:23:03.535Z,12.68
2018-11-12T04:25:34.012Z,12.61
2018-11-12T04:28:03.092Z,12.76
2018-11-12T04:30:31.921Z,12.60
2018-11-12T04:33:00.751Z,12.63
2018-11-12T04:35:29.879Z,12.68
2018-11-12T04:37:58.752Z,12.71
2018-11-12T04:40:27.904Z,12.65
2018-11-12T04:42:56.731Z,12.56
2018-11-12T04:45:25.976Z,12.63
2018-11-12T04:47:55.369Z,12.53
2018-11-12T04:50:25.724Z,12.57
2018-11-12T04:52:54.743Z,12.55
2018-11-12T04:55:24.395Z,12.60
2018-11-12T04:57:53.308Z,12.58
2018-11-12T05:00:23.483Z,12.60
2018-11-12T05:02:52.601Z,12.62
2018-11-12T05:05:22.833Z,12.61
2018-11-12T05:07:51.896Z,12.59
2018-11-12T05:10:22.138Z,12.58
2018-11-12T05:12:51.649Z,12.64
2018-11-12T05:15:21.636Z,12.61
2018-11-12T05:17:50.753Z,12.58
2018-11-12T05:20:21.733Z,12.58
2018-11-12T05:22:50.764Z,12.56
2018-11-12T05:25:19.747Z,12.42
2018-11-12T05:27:48.917Z,12.37
2018-11-12T05:30:22.673Z,12.52
2018-11-12T05:32:52.062Z,12.42
2018-11-12T05:35:22.179Z,12.35
2018-11-12T05:37:51.087Z,12.39
2018-11-12T05:40:21.183Z,12.34
2018-11-12T05:42:50.372Z,12.34
2018-11-12T05:45:20.282Z,12.38
2018-11-12T05:47:49.284Z,12.38
2018-11-12T05:50:19.286Z,12.33
2018-11-12T05:52:49.650Z,12.43
2018-11-12T05:55:20.019Z,12.18
2018-11-12T05:57:49.307Z,12.22
2018-11-12T06:00:23.687Z,12.33
2018-11-12T06:02:52.492Z,12.32
2018-11-12T06:05:21.399Z,12.28
2018-11-12T06:07:50.210Z,12.33
2018-11-12T06:10:21.090Z,12.37
2018-11-12T06:12:50.166Z,12.49
2018-11-12T06:15:19.032Z,12.43
2018-11-12T06:17:48.472Z,12.37
2018-11-12T06:20:21.338Z,12.25
2018-11-12T06:22:50.610Z,12.36
2018-11-12T06:25:21.210Z,12.35
2018-11-12T06:27:50.319Z,12.54
2018-11-12T06:30:20.502Z,13.06
2018-11-12T06:32:49.315Z,13.24
2018-11-12T06:35:19.145Z,13.18
2018-11-12T06:37:48.777Z,13.04
2018-11-12T06:40:18.946Z,13.01
2018-11-12T06:42:47.975Z,13.05
2018-11-12T06:45:19.067Z,12.84
2018-11-12T06:47:48.848Z,12.84
2018-11-12T06:50:19.349Z,12.87
2018-11-12T06:52:48.344Z,12.88
2018-11-12T06:55:17.851Z,12.88
2018-11-12T06:57:47.400Z,12.87
2018-11-12T07:00:19.305Z,12.92
2018-11-12T07:02:48.791Z,12.96
2018-11-12T07:05:18.138Z,12.97
2018-11-12T07:07:46.983Z,13.12
2018-11-12T07:10:17.105Z,13.24
2018-11-12T07:12:46.822Z,13.15
2018-11-12T07:15:17.179Z,13.19
2018-11-12T07:17:46.172Z,13.22
2018-11-12T07:20:16.323Z,13.37
2018-11-12T07:22:45.283Z,13.39
2018-11-12T07:25:15.089Z,13.42
2018-11-12T07:27:44.044Z,13.44
2018-11-12T07:30:16.052Z,13.44
2018-11-12T07:32:45.960Z,13.46
2018-11-12T07:35:15.516Z,13.46
2018-11-12T07:37:45.723Z,13.47
2018-11-12T07:40:15.329Z,13.53
2018-11-12T07:42:44.658Z,13.53
2018-11-12T07:45:23.751Z,13.56
2018-11-12T07:47:53.707Z,13.58
2018-11-12T07:50:23.866Z,13.63
2018-11-12T07:52:53.103Z,13.62
2018-11-12T07:55:23.074Z,13.59
2018-11-12T07:57:53.482Z,13.64
2018-11-12T08:00:25.166Z,13.66
2018-11-12T08:03:01.241Z,13.66
2018-11-12T08:05:30.172Z,13.65
2018-11-12T08:07:58.954Z,13.66
2018-11-12T08:10:27.864Z,13.74
2018-11-12T08:12:56.698Z,13.83
2018-11-12T08:15:25.544Z,13.87
2018-11-12T08:17:54.361Z,13.71
2018-11-12T08:20:24.432Z,13.85
2018-11-12T08:22:53.352Z,13.81
2018-11-12T08:25:22.502Z,13.75
2018-11-12T08:27:51.371Z,13.63
2018-11-12T08:30:22.799Z,13.59
2018-11-12T08:32:53.070Z,13.58
2018-11-12T08:35:22.368Z,13.62
2018-11-12T08:37:52.071Z,13.76
2018-11-12T08:40:22.228Z,13.85
2018-11-12T08:42:51.158Z,13.92
2018-11-12T08:45:20.423Z,13.95
2018-11-12T08:47:51.012Z,13.98
2018-11-12T08:50:22.503Z,13.87
2018-11-12T08:52:52.086Z,13.76
2018-11-12T08:55:22.658Z,13.70
2018-11-12T08:57:52.951Z,13.64
2018-11-12T09:00:22.724Z,13.55
2018-11-12T09:02:51.573Z,13.46
2018-11-12T09:05:22.120Z,13.40
2018-11-12T09:07:53.029Z,13.54
2018-11-12T09:10:23.767Z,13.62
2018-11-12T09:12:53.108Z,13.52
2018-11-12T09:15:22.108Z,13.48
2018-11-12T09:17:51.260Z,13.57
2018-11-12T09:20:25.213Z,13.53
2018-11-12T09:22:54.579Z,13.47
2018-11-12T09:25:25.848Z,13.56
2018-11-12T09:27:54.656Z,13.58
2018-11-12T09:30:25.053Z,13.55
2018-11-12T09:32:54.342Z,13.61
2018-11-12T09:35:32.119Z,13.69
2018-11-12T09:38:02.052Z,13.58
2018-11-12T09:40:35.447Z,13.64
2018-11-12T09:43:04.491Z,13.61
2018-11-12T09:45:33.688Z,13.61
2018-11-12T09:48:03.001Z,13.65
2018-11-12T09:50:32.003Z,13.74
2018-11-12T09:53:01.704Z,13.78
2018-11-12T09:55:31.739Z,13.78
2018-11-12T09:58:04.176Z,13.70
2018-11-12T10:00:33.149Z,13.66
2018-11-12T10:03:03.077Z,13.75
2018-11-12T10:05:33.151Z,13.71
2018-11-12T10:08:10.637Z,13.76
2018-11-12T10:10:44.936Z,13.66
2018-11-12T10:13:16.991Z,13.62
2018-11-12T10:15:47.072Z,13.73
2018-11-12T10:20:43.744Z,13.74
2018-11-12T10:23:12.491Z,13.76
2018-11-12T10:25:41.324Z,13.75
2018-11-12T10:28:10.471Z,13.79
2018-11-12T10:30:39.373Z,13.78
2018-11-12T10:33:08.540Z,13.75
2018-11-12T10:35:37.628Z,13.65
2018-11-12T10:38:07.479Z,13.53
2018-11-12T10:40:36.268Z,13.58
2018-11-12T10:43:05.188Z,13.73
2018-11-12T10:45:34.201Z,13.65
2018-11-12T10:48:03.098Z,13.62
2018-11-12T10:50:32.123Z,13.62
2018-11-12T10:53:00.926Z,13.66
2018-11-12T10:55:30.099Z,13.73
2018-11-12T10:57:59.063Z,13.76
2018-11-12T11:00:38.019Z,13.73
2018-11-12T11:03:20.138Z,13.61
2018-11-12T11:05:50.761Z,13.61
2018-11-12T11:08:19.694Z,13.61
2018-11-12T11:10:48.728Z,13.55
2018-11-12T11:13:17.756Z,13.70
2018-11-12T11:15:46.579Z,13.67
2018-11-12T11:18:15.459Z,13.78
2018-11-12T11:20:44.239Z,13.80
2018-11-12T11:23:13.060Z,13.91
2018-11-12T11:25:41.867Z,13.81
2018-11-12T11:28:10.795Z,13.82
2018-11-12T11:30:39.576Z,13.91
2018-11-12T11:33:11.234Z,13.97
2018-11-12T11:35:40.041Z,14.00
2018-11-12T11:38:08.831Z,14.07
2018-11-12T11:40:37.654Z,14.03
2018-11-12T11:43:06.574Z,14.13
2018-11-12T11:45:35.355Z,14.16
2018-11-12T11:48:04.367Z,14.22
2018-11-12T11:50:33.354Z,14.19
2018-11-12T11:53:02.644Z,14.24
2018-11-12T11:55:31.623Z,14.25
2018-11-12T11:58:00.588Z,14.24
2018-11-12T12:00:30.143Z,14.20
2018-11-12T12:02:59.641Z,14.28
2018-11-12T12:05:28.984Z,14.32
2018-11-12T12:07:58.447Z,14.36
2018-11-12T12:10:27.430Z,14.40
2018-11-12T12:12:56.396Z,14.41
2018-11-12T12:15:25.274Z,14.46
2018-11-12T12:17:54.087Z,14.56
2018-11-12T12:20:24.294Z,14.60
2018-11-12T12:22:53.641Z,14.63
2018-11-12T12:25:22.463Z,14.65
2018-11-12T12:27:51.510Z,14.66
2018-11-12T12:30:22.843Z,14.72
2018-11-12T12:32:52.718Z,14.77
2018-11-12T12:35:21.711Z,14.84
2018-11-12T12:37:50.783Z,14.84
2018-11-12T12:40:20.704Z,14.86
2018-11-12T12:42:49.821Z,14.89
2018-11-12T12:45:19.886Z,14.91
2018-11-12T12:47:49.203Z,14.93
2018-11-12T12:50:18.828Z,14.92
2018-11-12T12:52:47.615Z,14.95
2018-11-12T12:55:17.150Z,14.96
2018-11-12T12:57:46.420Z,15.00
2018-11-12T13:00:20.580Z,15.05
2018-11-12T13:02:49.535Z,15.10
2018-11-12T13:05:18.895Z,15.13
2018-11-12T13:07:47.708Z,15.13
2018-11-12T13:10:18.187Z,15.16
2018-11-12T13:12:47.323Z,15.16
2018-11-12T13:15:17.361Z,15.19
2018-11-12T13:17:46.896Z,15.22
2018-11-12T13:20:17.055Z,15.25
2018-11-12T13:22:46.562Z,15.26
2018-11-12T13:25:15.727Z,15.28
2018-11-12T13:27:45.332Z,15.29
2018-11-12T13:30:15.848Z,15.28
2018-11-12T13:32:45.243Z,15.27
2018-11-12T13:35:15.231Z,15.25
2018-11-12T13:37:44.053Z,15.25
2018-11-12T13:40:15.440Z,15.25
2018-11-12T13:42:45.981Z,15.29
2018-11-12T13:45:14.967Z,15.33
2018-11-12T13:47:43.906Z,15.42
2018-11-12T13:50:14.195Z,15.47
2018-11-12T13:52:43.667Z,15.48
2018-11-12T13:55:13.512Z,15.48
2018-11-12T13:57:42.328Z,15.40
2018-11-12T14:00:13.591Z,15.37
2018-11-12T14:02:43.420Z,15.46
2018-11-12T14:05:13.939Z,15.53
2018-11-12T14:07:43.288Z,15.60
2018-11-12T14:10:13.441Z,15.60
2018-11-12T14:12:42.671Z,15.62
2018-11-12T14:15:14.045Z,15.74
2018-11-12T14:17:44.245Z,15.87
2018-11-12T14:20:13.937Z,15.92
2018-11-12T14:22:43.143Z,15.97
2018-11-12T14:25:13.370Z,16.08
2018-11-12T14:27:42.500Z,16.14
2018-11-12T14:30:13.709Z,16.22
2018-11-12T14:32:42.724Z,16.32
2018-11-12T14:35:12.652Z,16.30
2018-11-12T14:37:42.413Z,16.34
2018-11-12T14:40:12.125Z,16.32
2018-11-12T14:42:41.372Z,16.32
2018-11-12T14:45:12.397Z,16.34
2018-11-12T14:47:41.937Z,16.37
2018-11-12T14:50:10.781Z,16.42
2018-11-12T14:52:39.754Z,16.50
2018-11-12T14:55:09.681Z,16.52
2018-11-12T14:57:38.583Z,16.50
2018-11-12T15:00:17.843Z,16.50
2018-11-12T15:02:47.233Z,16.48
2018-11-12T15:05:17.093Z,16.52
2018-11-12T15:07:45.901Z,16.53
2018-11-12T15:10:15.143Z,16.51
2018-11-12T15:12:44.528Z,16.48
2018-11-12T15:15:13.939Z,16.41
2018-11-12T15:17:45.965Z,16.33
2018-11-12T15:20:16.191Z,16.29
2018-11-12T15:22:45.209Z,16.17
2018-11-12T15:25:18.657Z,16.08
2018-11-12T15:27:47.444Z,16.01
2018-11-12T15:30:17.843Z,15.97
2018-11-12T15:32:47.534Z,15.94
2018-11-12T15:35:16.519Z,15.87
2018-11-12T15:37:46.130Z,15.85
2018-11-12T15:40:15.402Z,15.81
2018-11-12T15:42:44.181Z,15.75
2018-11-12T15:45:15.723Z,15.70
2018-11-12T15:47:45.423Z,15.67
2018-11-12T15:50:16.835Z,15.66
2018-11-12T15:52:45.794Z,15.64
2018-11-12T15:55:15.829Z,15.60
2018-11-12T15:57:43.925Z,15.56
2018-11-12T16:00:17.032Z,15.52
2018-11-12T16:02:46.020Z,15.48
2018-11-12T16:05:15.096Z,15.41
2018-11-12T16:07:44.105Z,15.35
2018-11-12T16:10:15.368Z,15.29
2018-11-12T16:12:44.172Z,15.25
2018-11-12T16:15:14.009Z,15.18
2018-11-12T16:17:43.331Z,15.19
2018-11-12T16:20:22.783Z,15.18
2018-11-12T16:22:52.143Z,15.14
2018-11-12T16:25:21.246Z,15.07
2018-11-12T16:27:50.063Z,15.05
2018-11-12T16:30:18.931Z,15.00
2018-11-12T16:32:48.092Z,14.92
2018-11-12T16:35:18.923Z,14.89
2018-11-12T16:37:48.578Z,14.89
2018-11-12T16:40:17.983Z,14.85
2018-11-12T16:42:47.727Z,14.81
2018-11-12T16:45:17.043Z,14.80
2018-11-12T16:47:47.237Z,14.80
2018-11-12T16:50:16.508Z,14.78
2018-11-12T16:52:45.300Z,14.74
2018-11-12T16:55:17.151Z,14.74
2018-11-12T16:57:46.245Z,14.70
2018-11-12T17:00:16.432Z,14.74
2018-11-12T17:02:45.479Z,14.68
2018-11-12T17:05:16.647Z,14.61
2018-11-12T17:07:45.471Z,14.62
2018-11-12T17:10:15.693Z,14.61
2018-11-12T17:12:45.648Z,14.62
2018-11-12T17:15:15.012Z,14.57
2018-11-12T17:17:44.358Z,14.57
2018-11-12T17:20:14.715Z,14.57
2018-11-12T17:22:43.523Z,14.58
2018-11-12T17:25:13.467Z,14.54
2018-11-12T17:27:42.913Z,14.57
2018-11-12T17:30:13.485Z,14.46
2018-11-12T17:32:42.969Z,14.47
2018-11-12T17:35:13.474Z,14.47
2018-11-12T17:37:42.779Z,14.48
2018-11-12T17:40:16.448Z,14.45
2018-11-12T17:42:46.125Z,14.46
2018-11-12T17:45:16.348Z,14.48
2018-11-12T17:47:46.262Z,14.40
2018-11-12T17:50:15.474Z,14.42
2018-11-12T17:52:44.298Z,14.42
2018-11-12T17:55:13.791Z,14.39
2018-11-12T17:57:42.744Z,14.38
2018-11-12T18:00:14.705Z,14.37
2018-11-12T18:02:43.492Z,14.40
2018-11-12T18:05:12.504Z,14.37
2018-11-12T18:07:42.063Z,14.38
2018-11-12T18:10:12.205Z,14.39
2018-11-12T18:12:41.021Z,14.39
2018-11-12T18:15:12.531Z,14.36
2018-11-12T18:17:41.675Z,14.41
2018-11-12T18:20:14.399Z,14.39
2018-11-12T18:22:43.523Z,14.41
2018-11-12T18:25:12.667Z,14.35
2018-11-12T18:27:41.986Z,14.34
2018-11-12T18:30:13.349Z,14.35
2018-11-12T18:32:42.297Z,14.40
2018-11-12T18:35:11.603Z,14.39
2018-11-12T18:37:40.448Z,14.40
2018-11-12T18:40:11.296Z,14.32
2018-11-12T18:42:40.715Z,14.32
2018-11-12T18:45:12.390Z,14.30
2018-11-12T18:47:41.905Z,14.31
2018-11-12T18:50:15.873Z,14.36
2018-11-12T18:52:45.272Z,14.37
2018-11-12T18:55:17.547Z,14.34
2018-11-12T18:57:47.072Z,14.36
2018-11-12T19:00:17.192Z,14.32
2018-11-12T19:02:46.455Z,14.31
2018-11-12T19:05:19.850Z,14.30
2018-11-12T19:07:50.278Z,14.28
2018-11-12T19:10:22.862Z,14.24
2018-11-12T19:12:52.139Z,14.27
2018-11-12T19:15:22.548Z,14.28
2018-11-12T19:17:55.088Z,14.24
2018-11-12T19:20:24.191Z,14.23
2018-11-12T19:22:53.555Z,14.18
2018-11-12T19:25:22.386Z,14.22
2018-11-12T19:27:51.204Z,14.21
2018-11-12T19:30:21.400Z,14.21
2018-11-12T19:32:50.977Z,14.19
2018-11-12T19:35:21.143Z,14.19
2018-11-12T19:37:50.130Z,14.18
2018-11-12T19:40:22.086Z,14.18
2018-11-12T19:42:52.432Z,14.17
2018-11-12T19:45:21.436Z,14.17
2018-11-12T19:47:51.311Z,14.17
2018-11-12T19:50:21.681Z,14.16
2018-11-12T19:52:52.048Z,14.13
2018-11-12T19:55:21.117Z,14.10
2018-11-12T19:57:50.302Z,14.09
2018-11-12T20:00:20.857Z,14.11
2018-11-12T20:02:51.375Z,14.12
2018-11-12T20:05:20.414Z,14.15
2018-11-12T20:07:49.460Z,14.22
2018-11-12T20:10:20.384Z,14.14
2018-11-12T20:12:49.508Z,14.16
2018-11-12T20:15:19.666Z,14.13
2018-11-12T20:17:49.210Z,14.10
2018-11-12T20:20:19.328Z,14.05
2018-11-12T20:22:49.013Z,14.12
2018-11-12T20:25:18.822Z,14.11
2018-11-12T20:27:48.392Z,14.10
2018-11-12T20:30:21.176Z,14.05
2018-11-12T20:32:50.225Z,14.15
2018-11-12T20:35:19.020Z,14.06
2018-11-12T20:37:48.155Z,14.10
2018-11-12T20:40:17.823Z,14.03
2018-11-12T20:42:47.894Z,13.93
2018-11-12T20:45:17.724Z,13.93
2018-11-12T20:47:47.880Z,14.01
2018-11-12T20:50:17.741Z,13.98
2018-11-12T20:52:46.631Z,13.99
2018-11-12T20:55:16.501Z,13.97
2018-11-12T20:57:46.055Z,13.98
2018-11-12T21:00:18.903Z,13.98
2018-11-12T21:02:49.222Z,14.00
2018-11-12T21:05:18.618Z,13.97
2018-11-12T21:07:47.408Z,13.92
2018-11-12T21:10:17.407Z,13.94
2018-11-12T21:12:46.991Z,13.84
2018-11-12T21:15:17.235Z,13.84
2018-11-12T21:17:46.236Z,13.86
2018-11-12T21:20:24.003Z,13.80
2018-11-12T21:22:53.693Z,13.87
2018-11-12T21:25:23.735Z,13.86
2018-11-12T21:27:52.668Z,13.91
2018-11-12T21:30:22.717Z,13.84
2018-11-12T21:32:52.069Z,13.81
2018-11-12T21:35:21.129Z,13.91
2018-11-12T21:37:51.490Z,13.93
2018-11-12T21:40:21.847Z,13.91
2018-11-12T21:42:51.005Z,13.90
2018-11-12T21:45:22.669Z,13.87
2018-11-12T21:47:51.717Z,13.78
2018-11-12T21:50:21.468Z,13.80
2018-11-12T21:52:50.626Z,13.87
2018-11-12T21:55:19.794Z,13.89
2018-11-12T21:57:48.944Z,13.85
2018-11-12T22:00:23.131Z,13.86
2018-11-12T22:02:54.197Z,13.86
2018-11-12T22:05:23.119Z,13.88
2018-11-12T22:07:51.899Z,13.78
2018-11-12T22:10:20.693Z,13.78
2018-11-12T22:12:50.620Z,13.81
2018-11-12T22:15:19.664Z,13.75
2018-11-12T22:17:48.468Z,13.72
2018-11-12T22:20:19.114Z,13.75
2018-11-12T22:22:47.906Z,13.78
2018-11-12T22:25:18.330Z,13.75
2018-11-12T22:27:49.617Z,13.85
2018-11-12T22:30:20.008Z,13.74
2018-11-12T22:32:50.103Z,13.73
2018-11-12T22:35:18.963Z,13.79
2018-11-12T22:37:48.195Z,13.80
2018-11-12T22:40:17.559Z,13.89
2018-11-12T22:42:48.051Z,13.78
2018-11-12T22:45:19.187Z,13.78
2018-11-12T22:47:48.656Z,13.80
2018-11-12T22:50:17.655Z,13.95
2018-11-12T22:52:46.704Z,13.85
2018-11-12T22:55:16.697Z,13.84
2018-11-12T22:57:45.738Z,13.89
2018-11-12T23:00:20.719Z,13.89
2018-11-12T23:02:50.152Z,13.86
2018-11-12T23:05:19.602Z,13.78
2018-11-12T23:07:49.265Z,13.83
2018-11-12T23:10:18.981Z,13.80
2018-11-12T23:12:47.858Z,13.79
2018-11-12T23:15:17.472Z,13.73
2018-11-12T23:17:46.668Z,13.81
2018-11-12T23:20:19.379Z,13.77
2018-11-12T23:22:48.960Z,13.79
2018-11-12T23:25:18.043Z,13.79
2018-11-12T23:27:47.765Z,13.75
2018-11-12T23:30:17.711Z,13.74
2018-11-12T23:32:46.895Z,13.73
2018-11-12T23:35:16.971Z,13.79
2018-11-12T23:37:46.374Z,13.77
2018-11-12T23:40:15.597Z,13.78
2018-11-12T23:42:45.320Z,13.77
2018-11-12T23:45:14.587Z,13.79
2018-11-12T23:47:43.395Z,13.86
2018-11-12T23:50:15.026Z,13.86
2018-11-12T23:52:44.730Z,13.92
2018-11-12T23:55:14.086Z,13.87
2018-11-12T23:57:43.262Z,13.78
